createdAt,value
2019-01-24T00:01:41.858Z,-4.40
2019-01-24T00:04:16.818Z,-4.37
2019-01-24T00:06:47.952Z,-4.37
2019-01-24T00:09:20.041Z,-4.36
2019-01-24T00:11:52.013Z,-4.33
2019-01-24T00:14:24.141Z,-4.34
2019-01-24T00:16:55.905Z,-4.30
2019-01-24T00:19:27.936Z,-4.32
2019-01-24T00:21:59.826Z,-4.36
2019-01-24T00:24:31.575Z,-4.34
2019-01-24T00:27:03.364Z,-4.34
2019-01-24T00:29:35.597Z,-4.36
2019-01-24T00:32:07.656Z,-4.35
2019-01-24T00:34:39.431Z,-4.36
2019-01-24T00:37:11.216Z,-4.34
2019-01-24T00:39:43.092Z,-4.35
2019-01-24T00:42:14.869Z,-4.30
2019-01-24T00:44:47.113Z,-4.27
2019-01-24T00:47:19.165Z,-4.25
2019-01-24T00:49:50.964Z,-4.26
2019-01-24T00:52:22.744Z,-4.22
2019-01-24T00:54:54.788Z,-4.23
2019-01-24T00:57:26.567Z,-4.26
2019-01-24T00:59:58.649Z,-4.21
2019-01-24T01:02:30.453Z,-4.20
2019-01-24T01:05:02.222Z,-4.23
2019-01-24T01:07:34.314Z,-4.18
2019-01-24T01:10:07.501Z,-4.22
2019-01-24T01:12:39.695Z,-4.23
2019-01-24T01:15:15.043Z,-4.21
2019-01-24T01:17:47.342Z,-4.20
2019-01-24T01:20:22.109Z,-4.19
2019-01-24T01:22:53.884Z,-4.21
2019-01-24T01:25:25.746Z,-4.19
2019-01-24T01:27:57.540Z,-4.20
2019-01-24T01:30:29.553Z,-4.20
2019-01-24T01:33:01.429Z,-4.19
2019-01-24T01:35:33.187Z,-4.20
2019-01-24T01:38:05.359Z,-4.21
2019-01-24T01:40:37.213Z,-4.18
2019-01-24T01:43:08.999Z,-4.18
2019-01-24T01:45:41.155Z,-4.16
2019-01-24T01:48:12.947Z,-4.17
2019-01-24T01:50:44.762Z,-4.15
2019-01-24T01:53:16.926Z,-4.15
2019-01-24T01:55:48.693Z,-4.13
2019-01-24T01:58:20.826Z,-4.13
2019-01-24T02:00:52.603Z,-4.12
2019-01-24T02:03:24.732Z,-4.12
2019-01-24T02:05:56.502Z,-4.09
2019-01-24T02:08:28.290Z,-4.08
2019-01-24T02:11:00.373Z,-4.13
2019-01-24T02:13:32.311Z,-4.16
2019-01-24T02:16:04.464Z,-4.18
2019-01-24T02:18:36.601Z,-4.15
2019-01-24T02:21:08.449Z,-4.18
2019-01-24T02:23:40.222Z,-4.17
2019-01-24T02:26:12.022Z,-4.15
2019-01-24T02:28:43.807Z,-4.15
2019-01-24T02:31:15.568Z,-4.13
2019-01-24T02:33:48.039Z,-4.10
2019-01-24T02:36:20.077Z,-4.11
2019-01-24T02:38:52.227Z,-4.11
2019-01-24T02:41:24.107Z,-4.07
2019-01-24T02:43:55.902Z,-4.06
2019-01-24T02:46:27.673Z,-4.03
2019-01-24T02:48:59.461Z,-4.04
2019-01-24T02:51:31.337Z,-3.99
2019-01-24T02:54:03.394Z,-4.01
2019-01-24T02:56:35.265Z,-3.99
2019-01-24T02:59:07.253Z,-4.01
2019-01-24T03:01:39.363Z,-3.98
2019-01-24T03:04:11.180Z,-3.99
2019-01-24T03:06:43.298Z,-4.02
2019-01-24T03:09:15.079Z,-4.05
2019-01-24T03:11:47.220Z,-4.05
2019-01-24T03:14:19.511Z,-4.07
2019-01-24T03:16:51.883Z,-4.05
2019-01-24T03:19:23.930Z,-4.00
2019-01-24T03:21:55.733Z,-4.00
2019-01-24T03:24:27.494Z,-3.98
2019-01-24T03:26:59.610Z,-3.94
2019-01-24T03:29:31.664Z,-3.96
2019-01-24T03:32:03.454Z,-3.98
2019-01-24T03:34:35.264Z,-4.00
2019-01-24T03:37:07.065Z,-4.00
2019-01-24T03:39:39.267Z,-4.02
2019-01-24T03:42:12.452Z,-4.01
2019-01-24T03:44:44.701Z,-3.99
2019-01-24T03:47:16.785Z,-3.98
2019-01-24T03:49:49.205Z,-3.95
2019-01-24T03:52:21.234Z,-3.94
2019-01-24T03:54:53.046Z,-3.94
2019-01-24T03:57:24.820Z,-3.90
2019-01-24T03:59:56.610Z,-3.85
2019-01-24T04:02:28.398Z,-3.84
2019-01-24T04:05:00.214Z,-3.86
2019-01-24T04:07:32.015Z,-3.85
2019-01-24T04:10:03.883Z,-3.84
2019-01-24T04:12:35.668Z,-3.87
2019-01-24T04:15:09.316Z,-3.87
2019-01-24T04:17:41.184Z,-3.87
2019-01-24T04:20:13.891Z,-3.84
2019-01-24T04:22:46.243Z,-3.85
2019-01-24T04:25:18.212Z,-3.86
2019-01-24T04:27:50.299Z,-3.89
2019-01-24T04:30:24.028Z,-3.90
2019-01-24T04:32:55.865Z,-3.87
2019-01-24T04:35:27.691Z,-3.87
2019-01-24T04:37:59.731Z,-3.85
2019-01-24T04:40:32.233Z,-3.87
2019-01-24T04:43:04.363Z,-3.84
2019-01-24T04:45:36.239Z,-3.86
2019-01-24T04:48:08.036Z,-3.83
2019-01-24T04:50:39.915Z,-3.83
2019-01-24T04:53:11.685Z,-3.83
2019-01-24T04:55:43.514Z,-3.79
2019-01-24T04:58:15.299Z,-3.83
2019-01-24T05:00:47.085Z,-3.83
2019-01-24T05:03:18.890Z,-3.77
2019-01-24T05:05:50.703Z,-3.74
2019-01-24T05:08:22.621Z,-3.76
2019-01-24T05:10:54.992Z,-3.79
2019-01-24T05:13:27.086Z,-3.75
2019-01-24T05:15:58.885Z,-3.78
2019-01-24T05:18:30.658Z,-3.74
2019-01-24T05:21:02.564Z,-3.73
2019-01-24T05:23:34.727Z,-3.72
2019-01-24T05:26:06.634Z,-3.78
2019-01-24T05:28:38.691Z,-3.77
2019-01-24T05:31:10.648Z,-3.77
2019-01-24T05:33:42.843Z,-3.76
2019-01-24T05:36:15.185Z,-3.75
2019-01-24T05:38:47.428Z,-3.73
2019-01-24T05:41:19.355Z,-3.72
2019-01-24T05:43:51.110Z,-3.75
2019-01-24T05:46:23.246Z,-3.75
2019-01-24T05:48:55.105Z,-3.77
2019-01-24T05:51:27.278Z,-3.75
2019-01-24T05:53:59.038Z,-3.72
2019-01-24T05:56:30.913Z,-3.73
2019-01-24T05:59:02.687Z,-3.73
2019-01-24T06:01:36.269Z,-3.72
2019-01-24T06:04:08.053Z,-3.73
2019-01-24T06:06:39.868Z,-3.70
2019-01-24T06:09:11.710Z,-3.73
2019-01-24T06:11:43.796Z,-3.71
2019-01-24T06:14:15.571Z,-3.72
2019-01-24T06:16:47.444Z,-3.70
2019-01-24T06:19:19.260Z,-3.71
2019-01-24T06:21:51.457Z,-3.69
2019-01-24T06:24:23.957Z,-3.70
2019-01-24T06:26:56.297Z,-3.70
2019-01-24T06:29:28.499Z,-3.68
2019-01-24T06:32:00.568Z,-3.68
2019-01-24T06:34:32.324Z,-3.73
2019-01-24T06:37:04.394Z,-3.69
2019-01-24T06:39:36.499Z,-3.65
2019-01-24T06:42:08.318Z,-3.70
2019-01-24T06:44:40.448Z,-3.68
2019-01-24T06:47:12.620Z,-3.68
2019-01-24T06:49:44.975Z,-3.69
2019-01-24T06:52:16.775Z,-3.70
2019-01-24T06:54:48.899Z,-3.70
2019-01-24T06:57:20.775Z,-3.68
2019-01-24T06:59:52.615Z,-3.57
2019-01-24T07:02:24.563Z,-3.60
2019-01-24T07:04:56.414Z,-3.59
2019-01-24T07:07:28.386Z,-3.65
2019-01-24T07:10:00.359Z,-3.64
2019-01-24T07:12:32.620Z,-3.65
2019-01-24T07:15:05.609Z,-3.61
2019-01-24T07:17:38.050Z,-3.59
2019-01-24T07:20:11.361Z,-3.62
2019-01-24T07:22:42.294Z,-3.51
2019-01-24T07:25:20.912Z,-3.56
2019-01-24T07:27:52.739Z,-3.56
2019-01-24T07:30:24.529Z,-3.51
2019-01-24T07:32:56.317Z,-3.46
2019-01-24T07:35:28.145Z,-3.46
2019-01-24T07:38:00.104Z,-3.42
2019-01-24T07:40:32.210Z,-3.36
2019-01-24T07:43:04.353Z,-3.35
2019-01-24T07:45:39.943Z,-3.26
2019-01-24T07:48:12.098Z,-3.25
2019-01-24T07:50:43.874Z,-3.15
2019-01-24T07:53:15.757Z,-3.02
2019-01-24T07:55:47.530Z,-3.05
2019-01-24T07:58:19.320Z,-2.94
2019-01-24T08:00:51.381Z,-2.86
2019-01-24T08:03:24.444Z,-2.85
2019-01-24T08:05:55.617Z,-2.89
2019-01-24T08:08:27.303Z,-2.84
2019-01-24T08:10:59.524Z,-2.86
2019-01-24T08:13:32.014Z,-2.78
2019-01-24T08:16:04.082Z,-2.65
2019-01-24T08:18:35.937Z,-2.60
2019-01-24T08:21:08.087Z,-2.55
2019-01-24T08:23:40.243Z,-2.51
2019-01-24T08:26:12.486Z,-2.50
2019-01-24T08:28:44.918Z,-2.46
2019-01-24T08:31:16.712Z,-2.24
2019-01-24T08:33:48.473Z,-2.29
2019-01-24T08:36:20.260Z,-2.06
2019-01-24T08:38:52.053Z,-2.11
2019-01-24T08:41:24.776Z,-1.92
2019-01-24T08:43:56.835Z,-1.99
2019-01-24T08:46:28.626Z,-1.75
2019-01-24T08:49:00.487Z,-1.80
2019-01-24T08:51:32.447Z,-1.49
2019-01-24T08:54:04.535Z,-1.37
2019-01-24T08:56:36.423Z,-1.25
2019-01-24T08:59:08.662Z,-1.38
2019-01-24T09:01:40.743Z,-1.09
2019-01-24T09:04:12.793Z,-0.97
2019-01-24T09:06:44.609Z,-1.17
2019-01-24T09:09:16.722Z,-0.75
2019-01-24T09:11:48.539Z,-0.83
2019-01-24T09:14:20.319Z,-0.50
2019-01-24T09:16:52.503Z,-0.61
2019-01-24T09:19:24.617Z,-0.35
2019-01-24T09:21:56.707Z,-0.63
2019-01-24T09:24:28.800Z,-0.53
2019-01-24T09:27:00.960Z,-0.59
2019-01-24T09:29:33.026Z,-0.86
2019-01-24T09:32:04.869Z,-0.69
2019-01-24T09:34:36.758Z,-0.38
2019-01-24T09:37:08.530Z,-0.27
2019-01-24T09:39:40.411Z,-0.15
2019-01-24T09:42:12.274Z,-0.45
2019-01-24T09:44:44.365Z,-0.21
2019-01-24T09:47:16.149Z,-0.17
2019-01-24T09:49:48.008Z,-0.39
2019-01-24T09:52:19.779Z,-0.20
2019-01-24T09:54:51.537Z,-0.29
2019-01-24T09:57:23.321Z,0.03
2019-01-24T09:59:55.436Z,0.05
2019-01-24T10:02:27.272Z,-0.07
2019-01-24T10:04:59.373Z,-0.11
2019-01-24T10:07:31.208Z,-0.14
2019-01-24T10:10:03.052Z,0.36
2019-01-24T10:12:34.832Z,0.59
2019-01-24T10:15:08.221Z,0.40
2019-01-24T10:17:40.016Z,0.08
2019-01-24T10:20:14.699Z,0.04
2019-01-24T10:22:46.888Z,-0.77
2019-01-24T10:25:26.155Z,-0.68
2019-01-24T10:27:58.290Z,-0.66
2019-01-24T10:30:30.093Z,-0.50
2019-01-24T10:33:01.883Z,-0.26
2019-01-24T10:35:33.946Z,0.43
2019-01-24T10:38:05.824Z,0.86
2019-01-24T10:40:37.896Z,0.35
2019-01-24T10:43:10.377Z,1.11
2019-01-24T10:45:42.719Z,0.98
2019-01-24T10:48:14.482Z,0.89
2019-01-24T10:50:46.243Z,1.22
2019-01-24T10:53:18.929Z,1.18
2019-01-24T10:55:50.711Z,1.43
2019-01-24T10:58:23.163Z,0.95
2019-01-24T11:00:55.556Z,0.53
2019-01-24T11:03:28.059Z,1.03
2019-01-24T11:05:59.818Z,1.44
2019-01-24T11:08:31.914Z,0.80
2019-01-24T11:11:03.996Z,1.00
2019-01-24T11:13:35.783Z,1.26
2019-01-24T11:16:08.526Z,1.31
2019-01-24T11:18:40.334Z,1.19
2019-01-24T11:21:12.687Z,0.74
2019-01-24T11:23:45.052Z,1.54
2019-01-24T11:26:17.402Z,1.39
2019-01-24T11:28:49.758Z,1.66
2019-01-24T11:31:22.499Z,1.11
2019-01-24T11:33:54.378Z,0.92
2019-01-24T11:36:26.737Z,0.82
2019-01-24T11:38:59.089Z,0.39
2019-01-24T11:41:33.164Z,0.93
2019-01-24T11:44:05.859Z,0.55
2019-01-24T11:46:37.641Z,0.58
2019-01-24T11:49:10.375Z,0.56
2019-01-24T11:51:42.374Z,0.74
2019-01-24T11:54:15.010Z,0.79
2019-01-24T11:56:47.376Z,0.43
2019-01-24T11:59:19.741Z,0.81
2019-01-24T12:01:52.105Z,1.04
2019-01-24T12:04:24.554Z,-0.13
2019-01-24T12:07:03.946Z,-0.21
2019-01-24T12:09:31.597Z,0.07
2019-01-24T12:12:03.380Z,0.31
2019-01-24T12:14:35.713Z,0.56
2019-01-24T12:17:08.141Z,0.69
2019-01-24T12:19:40.662Z,0.30
2019-01-24T12:22:13.511Z,0.26
2019-01-24T12:24:45.667Z,0.46
2019-01-24T12:27:18.349Z,0.12
2019-01-24T12:29:50.149Z,-0.16
2019-01-24T12:32:22.618Z,0.04
2019-01-24T12:34:54.993Z,-0.01
2019-01-24T12:37:27.073Z,0.16
2019-01-24T12:39:58.823Z,0.10
2019-01-24T12:42:30.650Z,0.11
2019-01-24T12:45:02.488Z,-0.03
2019-01-24T12:47:34.306Z,0.17
2019-01-24T12:50:08.395Z,0.20
2019-01-24T12:52:40.512Z,0.09
2019-01-24T12:55:12.902Z,-0.18
2019-01-24T12:57:46.926Z,-0.13
2019-01-24T13:00:39.627Z,-0.06
2019-01-24T13:03:11.488Z,0.16
2019-01-24T13:05:43.703Z,0.07
2019-01-24T13:08:16.230Z,-0.17
2019-01-24T13:10:48.310Z,-0.03
2019-01-24T13:13:20.466Z,0.06
2019-01-24T13:15:52.545Z,0.08
2019-01-24T13:18:24.701Z,0.08
2019-01-24T13:20:56.731Z,-0.55
2019-01-24T13:23:28.609Z,-0.81
2019-01-24T13:26:00.976Z,-0.38
2019-01-24T13:28:33.421Z,-0.10
2019-01-24T13:31:05.520Z,-0.06
2019-01-24T13:33:38.417Z,-0.08
2019-01-24T13:36:10.462Z,-0.22
2019-01-24T13:38:42.840Z,-0.19
2019-01-24T13:41:14.685Z,-0.20
2019-01-24T13:43:47.134Z,-0.09
2019-01-24T13:46:22.286Z,0.02
2019-01-24T13:48:54.386Z,-0.14
2019-01-24T13:51:26.162Z,-0.11
2019-01-24T13:53:58.297Z,0.00
2019-01-24T13:56:30.086Z,-0.07
2019-01-24T13:59:01.927Z,-0.15
2019-01-24T14:01:33.784Z,-0.21
2019-01-24T14:04:32.643Z,-0.16
2019-01-24T14:07:04.410Z,-0.50
2019-01-24T14:09:36.375Z,-0.73
2019-01-24T14:12:08.441Z,-0.50
2019-01-24T14:14:40.636Z,-0.82
2019-01-24T14:17:12.689Z,-0.79
2019-01-24T14:19:44.565Z,-0.72
2019-01-24T14:22:16.580Z,-0.57
2019-01-24T14:24:48.667Z,-0.77
2019-01-24T14:27:20.424Z,-0.59
2019-01-24T14:29:52.201Z,-0.57
2019-01-24T14:32:24.042Z,-0.49
2019-01-24T14:34:56.514Z,-0.49
2019-01-24T14:37:29.150Z,-0.45
2019-01-24T14:40:01.690Z,-0.47
2019-01-24T14:42:34.021Z,-0.62
2019-01-24T14:45:08.678Z,-0.50
2019-01-24T14:47:40.533Z,-1.02
2019-01-24T14:50:25.527Z,-0.72
2019-01-24T14:52:57.348Z,-0.60
2019-01-24T14:55:29.198Z,-0.56
2019-01-24T14:58:01.569Z,-0.59
2019-01-24T15:00:48.611Z,-1.11
2019-01-24T15:03:20.466Z,-0.78
2019-01-24T15:05:52.310Z,-0.94
2019-01-24T15:08:24.426Z,-0.94
2019-01-24T15:10:56.546Z,-0.88
2019-01-24T15:13:28.395Z,-0.91
2019-01-24T15:16:00.187Z,-1.13
2019-01-24T15:18:32.231Z,-1.13
2019-01-24T15:21:04.553Z,-1.01
2019-01-24T15:23:36.366Z,-1.05
2019-01-24T15:26:08.548Z,-1.05
2019-01-24T15:28:40.693Z,-1.07
2019-01-24T15:31:12.604Z,-1.15
2019-01-24T15:33:44.474Z,-1.23
2019-01-24T15:36:16.399Z,-1.17
2019-01-24T15:38:48.263Z,-1.44
2019-01-24T15:41:20.061Z,-1.47
2019-01-24T15:43:51.908Z,-1.36
2019-01-24T15:46:23.733Z,-1.32
2019-01-24T15:48:55.513Z,-1.53
2019-01-24T15:51:27.877Z,-1.32
2019-01-24T15:54:00.056Z,-1.45
2019-01-24T15:56:31.876Z,-1.37
2019-01-24T15:59:03.956Z,-1.53
2019-01-24T16:01:36.090Z,-1.50
2019-01-24T16:04:08.469Z,-1.53
2019-01-24T16:06:40.604Z,-1.76
2019-01-24T16:09:12.744Z,-1.79
2019-01-24T16:11:45.016Z,-1.65
2019-01-24T16:14:16.828Z,-1.81
2019-01-24T16:16:48.614Z,-1.76
2019-01-24T16:19:20.479Z,-1.74
2019-01-24T16:21:52.274Z,-1.84
2019-01-24T16:24:24.166Z,-1.90
2019-01-24T16:26:56.305Z,-2.03
2019-01-24T16:29:28.107Z,-1.96
2019-01-24T16:31:59.926Z,-1.91
2019-01-24T16:34:31.688Z,-1.90
2019-01-24T16:37:03.524Z,-1.91
2019-01-24T16:39:35.303Z,-2.00
2019-01-24T16:42:07.115Z,-2.04
2019-01-24T16:44:39.242Z,-2.14
2019-01-24T16:47:11.112Z,-2.11
2019-01-24T16:49:42.873Z,-2.09
2019-01-24T16:52:14.808Z,-2.06
2019-01-24T16:54:47.135Z,-2.15
2019-01-24T16:57:19.202Z,-2.10
2019-01-24T16:59:51.004Z,-2.32
2019-01-24T17:02:22.881Z,-2.21
2019-01-24T17:04:54.645Z,-2.26
2019-01-24T17:07:26.603Z,-2.26
2019-01-24T17:09:59.088Z,-2.25
2019-01-24T17:12:31.202Z,-2.30
2019-01-24T17:15:02.997Z,-2.42
2019-01-24T17:17:34.819Z,-2.34
2019-01-24T17:20:12.594Z,-2.33
2019-01-24T17:22:44.411Z,-2.33
2019-01-24T17:25:17.642Z,-2.34
2019-01-24T17:27:49.765Z,-2.36
2019-01-24T17:30:24.352Z,-2.37
2019-01-24T17:32:56.452Z,-2.37
2019-01-24T17:35:28.353Z,-2.42
2019-01-24T17:38:00.504Z,-2.35
2019-01-24T17:40:32.990Z,-2.37
2019-01-24T17:43:05.380Z,-2.45
2019-01-24T17:45:37.172Z,-2.47
2019-01-24T17:48:09.490Z,-2.54
2019-01-24T17:50:42.537Z,-2.51
2019-01-24T17:53:14.426Z,-2.52
2019-01-24T17:55:48.062Z,-2.55
2019-01-24T17:58:19.857Z,-2.55
2019-01-24T18:00:53.645Z,-2.57
2019-01-24T18:03:25.549Z,-2.57
2019-01-24T18:05:57.415Z,-2.61
2019-01-24T18:08:31.430Z,-2.70
2019-01-24T18:11:03.188Z,-2.60
2019-01-24T18:13:35.823Z,-2.66
2019-01-24T18:16:08.280Z,-2.71
2019-01-24T18:18:40.397Z,-2.72
2019-01-24T18:21:12.200Z,-2.69
2019-01-24T18:23:44.025Z,-2.73
2019-01-24T18:26:15.895Z,-2.80
2019-01-24T18:28:47.702Z,-2.76
2019-01-24T18:31:20.167Z,-2.77
2019-01-24T18:33:52.392Z,-2.77
2019-01-24T18:36:24.256Z,-2.77
2019-01-24T18:38:56.516Z,-2.81
2019-01-24T18:41:28.878Z,-2.80
2019-01-24T18:44:00.795Z,-2.77
2019-01-24T18:46:32.719Z,-2.80
2019-01-24T18:49:05.250Z,-2.79
2019-01-24T18:51:37.344Z,-2.80
2019-01-24T18:54:09.192Z,-2.82
2019-01-24T18:56:40.983Z,-2.87
2019-01-24T18:59:12.787Z,-2.83
2019-01-24T19:01:44.695Z,-2.81
2019-01-24T19:04:16.579Z,-2.81
2019-01-24T19:06:48.432Z,-2.86
2019-01-24T19:09:20.266Z,-2.90
2019-01-24T19:11:52.209Z,-2.90
2019-01-24T19:14:24.001Z,-2.93
2019-01-24T19:16:56.120Z,-3.00
2019-01-24T19:19:28.435Z,-2.95
2019-01-24T19:22:00.494Z,-2.95
2019-01-24T19:24:34.135Z,-2.98
2019-01-24T19:27:06.121Z,-2.94
2019-01-24T19:29:38.025Z,-2.95
2019-01-24T19:32:09.882Z,-3.01
2019-01-24T19:34:42.153Z,-2.99
2019-01-24T19:37:14.203Z,-3.09
2019-01-24T19:39:45.981Z,-3.04
2019-01-24T19:42:17.823Z,-3.03
2019-01-24T19:44:49.629Z,-3.06
2019-01-24T19:47:21.421Z,-3.04
2019-01-24T19:49:53.182Z,-3.07
2019-01-24T19:52:24.980Z,-3.12
2019-01-24T19:54:57.186Z,-3.06
2019-01-24T19:57:29.034Z,-3.08
2019-01-24T20:00:00.807Z,-3.15
2019-01-24T20:02:32.652Z,-3.16
2019-01-24T20:05:04.628Z,-3.16
2019-01-24T20:07:36.527Z,-3.22
2019-01-24T20:10:12.085Z,-3.23
2019-01-24T20:12:44.343Z,-3.30
2019-01-24T20:15:20.540Z,-3.33
2019-01-24T20:17:52.376Z,-3.34
2019-01-24T20:20:24.315Z,-3.32
2019-01-24T20:22:56.503Z,-3.27
2019-01-24T20:25:30.816Z,-3.28
2019-01-24T20:28:02.617Z,-3.34
2019-01-24T20:30:34.436Z,-3.33
2019-01-24T20:33:06.540Z,-3.40
2019-01-24T20:35:42.722Z,-3.46
2019-01-24T20:38:14.584Z,-3.48
2019-01-24T20:40:46.615Z,-3.45
2019-01-24T20:43:18.479Z,-3.50
2019-01-24T20:45:50.404Z,-3.51
2019-01-24T20:48:22.222Z,-3.52
2019-01-24T20:50:55.116Z,-3.59
2019-01-24T20:53:26.228Z,-3.56
2019-01-24T20:55:57.915Z,-3.57
2019-01-24T20:58:29.873Z,-3.57
2019-01-24T21:01:01.970Z,-3.58
2019-01-24T21:03:33.774Z,-3.61
2019-01-24T21:06:05.603Z,-3.64
2019-01-24T21:08:37.434Z,-3.66
2019-01-24T21:11:09.270Z,-3.63
2019-01-24T21:13:41.198Z,-3.62
2019-01-24T21:16:13.052Z,-3.64
2019-01-24T21:18:45.179Z,-3.74
2019-01-24T21:21:17.224Z,-3.70
2019-01-24T21:23:49.040Z,-3.67
2019-01-24T21:26:23.497Z,-3.68
2019-01-24T21:28:54.435Z,-3.72
2019-01-24T21:31:26.324Z,-3.76
2019-01-24T21:33:58.239Z,-3.69
2019-01-24T21:36:30.239Z,-3.77
2019-01-24T21:39:02.176Z,-3.82
2019-01-24T21:41:34.019Z,-3.85
2019-01-24T21:44:06.453Z,-3.82
2019-01-24T21:46:38.905Z,-3.84
2019-01-24T21:49:11.047Z,-3.75
2019-01-24T21:51:42.945Z,-3.87
2019-01-24T21:54:14.925Z,-3.95
2019-01-24T21:56:47.519Z,-3.95
2019-01-24T21:59:19.688Z,-3.94
2019-01-24T22:01:51.754Z,-3.96
2019-01-24T22:04:23.942Z,-3.95
2019-01-24T22:06:56.265Z,-3.99
2019-01-24T22:09:29.290Z,-3.97
2019-01-24T22:12:01.908Z,-3.96
2019-01-24T22:14:34.142Z,-3.97
2019-01-24T22:17:06.029Z,-3.95
2019-01-24T22:19:37.850Z,-4.02
2019-01-24T22:22:10.026Z,-3.98
2019-01-24T22:24:41.870Z,-3.94
2019-01-24T22:27:13.802Z,-3.98
2019-01-24T22:29:45.768Z,-4.05
2019-01-24T22:32:17.578Z,-3.98
2019-01-24T22:34:49.400Z,-3.99
2019-01-24T22:37:21.323Z,-4.02
2019-01-24T22:39:53.190Z,-3.98
2019-01-24T22:42:25.001Z,-3.93
2019-01-24T22:44:56.907Z,-3.94
2019-01-24T22:47:28.708Z,-3.92
2019-01-24T22:50:00.599Z,-3.90
2019-01-24T22:52:32.508Z,-3.91
2019-01-24T22:55:04.370Z,-3.97
2019-01-24T22:57:36.319Z,-3.96
2019-01-24T23:00:51.501Z,-4.02
2019-01-24T23:03:37.370Z,-3.95
2019-01-24T23:06:09.411Z,-4.01
2019-01-24T23:08:41.195Z,-3.96
2019-01-24T23:11:13.083Z,-3.95
2019-01-24T23:13:44.836Z,-3.94
2019-01-24T23:16:16.726Z,-3.93
2019-01-24T23:18:48.614Z,-3.95
2019-01-24T23:21:20.437Z,-3.96
2019-01-24T23:23:52.250Z,-3.92
2019-01-24T23:26:24.373Z,-3.95
2019-01-24T23:28:56.549Z,-3.97
2019-01-24T23:31:28.726Z,-3.93
2019-01-24T23:34:00.933Z,-3.96
2019-01-24T23:36:33.654Z,-3.96
2019-01-24T23:39:09.271Z,-3.94
2019-01-24T23:41:41.055Z,-3.96
2019-01-24T23:44:12.969Z,-3.94
2019-01-24T23:46:44.987Z,-3.98
2019-01-24T23:49:16.790Z,-3.95
2019-01-24T23:51:48.933Z,-3.93
2019-01-24T23:54:20.975Z,-3.93
2019-01-24T23:56:53.152Z,-3.94
2019-01-24T23:59:26.857Z,-3.95
